createdAt,value
2018-09-30T00:00:52.808Z,5.07
2018-09-30T00:03:21.005Z,4.83
2018-09-30T00:05:49.179Z,4.87
2018-09-30T00:08:17.397Z,4.57
2018-09-30T00:10:45.580Z,4.37
2018-09-30T00:13:13.788Z,4.93
2018-09-30T00:15:41.981Z,4.60
2018-09-30T00:18:10.161Z,4.40
2018-09-30T00:20:38.436Z,4.57
2018-09-30T00:23:06.744Z,5.17
2018-09-30T00:25:40.113Z,6.30
2018-09-30T00:28:08.290Z,6.47
2018-09-30T00:30:36.510Z,6.80
2018-09-30T00:33:04.729Z,6.43
2018-09-30T00:35:32.915Z,6.57
2018-09-30T00:38:01.104Z,6.93
2018-09-30T00:40:29.305Z,6.87
2018-09-30T00:42:57.501Z,6.80
2018-09-30T00:45:25.700Z,6.47
2018-09-30T00:47:53.884Z,6.87
2018-09-30T00:50:22.376Z,6.40
2018-09-30T00:52:50.587Z,6.60
2018-09-30T00:55:18.776Z,6.47
2018-09-30T00:57:46.995Z,6.30
2018-09-30T01:00:15.200Z,5.70
2018-09-30T01:02:43.391Z,5.87
2018-09-30T01:05:11.611Z,5.80
2018-09-30T01:07:39.818Z,4.97
2018-09-30T01:10:08.044Z,5.47
2018-09-30T01:12:36.228Z,4.93
2018-09-30T01:15:04.439Z,5.17
2018-09-30T01:17:32.606Z,4.83
2018-09-30T01:20:00.873Z,4.67
2018-09-30T01:22:29.003Z,5.03
2018-09-30T01:24:57.171Z,4.63
2018-09-30T01:27:25.393Z,5.23
2018-09-30T01:29:53.577Z,5.30
2018-09-30T01:32:21.754Z,4.90
2018-09-30T01:34:49.930Z,4.80
2018-09-30T01:37:18.111Z,4.80
2018-09-30T01:39:46.287Z,4.47
2018-09-30T01:42:14.483Z,5.23
2018-09-30T01:44:42.672Z,4.63
2018-09-30T01:47:10.851Z,4.20
2018-09-30T01:49:39.033Z,4.80
2018-09-30T01:53:10.459Z,4.33
2018-09-30T01:55:38.797Z,4.43
2018-09-30T01:58:07.001Z,4.30
2018-09-30T02:00:35.175Z,4.37
2018-09-30T02:03:03.390Z,4.23
2018-09-30T02:05:31.565Z,4.60
2018-09-30T02:07:59.769Z,4.30
2018-09-30T02:10:28.004Z,4.70
2018-09-30T02:12:56.189Z,4.40
2018-09-30T02:15:24.364Z,4.03
2018-09-30T02:17:52.576Z,4.93
2018-09-30T02:20:20.763Z,4.13
2018-09-30T02:22:48.959Z,4.60
2018-09-30T02:25:17.117Z,4.37
2018-09-30T02:27:45.308Z,4.40
2018-09-30T02:30:13.497Z,3.87
2018-09-30T02:32:41.673Z,4.33
2018-09-30T02:35:09.863Z,4.40
2018-09-30T02:37:38.057Z,4.03
2018-09-30T02:40:06.269Z,4.50
2018-09-30T02:42:34.465Z,4.30
2018-09-30T02:45:02.665Z,4.70
2018-09-30T02:47:30.856Z,4.27
2018-09-30T02:49:59.032Z,4.37
2018-09-30T02:52:27.205Z,4.43
2018-09-30T02:54:55.393Z,4.73
2018-09-30T02:57:23.564Z,4.17
2018-09-30T02:59:51.776Z,5.20
2018-09-30T03:02:20.040Z,5.40
2018-09-30T03:04:48.231Z,4.37
2018-09-30T03:07:21.663Z,4.70
2018-09-30T03:09:49.844Z,4.17
2018-09-30T03:12:18.039Z,4.37
2018-09-30T03:14:46.228Z,4.10
2018-09-30T03:17:14.424Z,4.10
2018-09-30T03:19:42.600Z,4.50
2018-09-30T03:22:10.821Z,4.20
2018-09-30T03:24:38.992Z,4.77
2018-09-30T03:27:07.176Z,4.27
2018-09-30T03:29:35.371Z,4.40
2018-09-30T03:32:03.548Z,4.20
2018-09-30T03:34:31.774Z,4.73
2018-09-30T03:36:59.967Z,4.13
2018-09-30T03:39:28.214Z,4.57
2018-09-30T03:41:56.404Z,4.33
2018-09-30T03:44:24.587Z,4.60
2018-09-30T03:46:52.775Z,4.10
2018-09-30T03:49:20.960Z,4.20
2018-09-30T03:51:49.155Z,4.40
2018-09-30T03:54:17.325Z,4.10
2018-09-30T03:56:45.610Z,4.50
2018-09-30T03:59:13.731Z,4.03
2018-09-30T04:01:41.914Z,4.33
2018-09-30T04:04:10.104Z,4.40
2018-09-30T04:06:38.330Z,4.53
2018-09-30T04:09:07.867Z,4.80
2018-09-30T04:11:36.048Z,4.70
2018-09-30T04:14:04.261Z,4.53
2018-09-30T04:16:32.469Z,5.17
2018-09-30T04:19:00.661Z,4.73
2018-09-30T04:21:28.840Z,4.73
2018-09-30T04:24:02.696Z,4.40
2018-09-30T04:26:30.888Z,4.23
2018-09-30T04:28:59.076Z,5.37
2018-09-30T04:31:27.267Z,4.70
2018-09-30T04:33:55.450Z,4.10
2018-09-30T04:36:23.626Z,4.60
2018-09-30T04:38:51.832Z,4.40
2018-09-30T04:41:20.032Z,4.37
2018-09-30T04:43:48.235Z,4.53
2018-09-30T04:46:16.807Z,4.77
2018-09-30T04:48:44.980Z,4.90
2018-09-30T04:51:13.175Z,4.50
2018-09-30T04:53:41.410Z,4.07
2018-09-30T04:56:09.608Z,4.80
2018-09-30T04:58:37.827Z,4.20
2018-09-30T05:01:06.017Z,4.80
2018-09-30T05:03:34.200Z,4.13
2018-09-30T05:06:02.392Z,4.07
2018-09-30T05:08:30.677Z,4.67
2018-09-30T05:10:58.958Z,5.00
2018-09-30T05:13:28.256Z,4.63
2018-09-30T05:15:57.558Z,4.60
2018-09-30T05:18:25.768Z,5.10
2018-09-30T05:20:53.991Z,5.30
2018-09-30T05:23:22.176Z,4.80
2018-09-30T05:25:50.372Z,5.27
2018-09-30T05:28:18.560Z,5.13
2018-09-30T05:30:46.809Z,5.00
2018-09-30T05:33:14.999Z,5.90
2018-09-30T05:35:43.211Z,5.43
2018-09-30T05:38:11.406Z,5.60
2018-09-30T05:40:39.616Z,5.57
2018-09-30T05:43:07.805Z,5.40
2018-09-30T05:45:37.119Z,5.27
2018-09-30T05:48:05.411Z,5.60
2018-09-30T05:50:38.519Z,5.57
2018-09-30T05:53:07.812Z,5.80
2018-09-30T05:55:36.097Z,5.87
2018-09-30T05:58:04.427Z,5.53
2018-09-30T06:00:32.700Z,5.40
2018-09-30T06:03:00.912Z,5.57
2018-09-30T06:05:29.116Z,5.80
2018-09-30T06:07:57.313Z,5.57
2018-09-30T06:10:25.521Z,5.27
2018-09-30T06:12:54.756Z,5.10
2018-09-30T06:15:23.039Z,5.20
2018-09-30T06:17:51.312Z,5.43
2018-09-30T06:20:25.440Z,5.17
2018-09-30T06:22:53.836Z,4.87
2018-09-30T06:25:22.114Z,5.23
2018-09-30T06:27:50.404Z,4.93
2018-09-30T06:30:18.658Z,5.43
2018-09-30T06:32:46.896Z,5.20
2018-09-30T06:35:15.161Z,5.40
2018-09-30T06:37:47.548Z,5.27
2018-09-30T06:40:15.750Z,5.30
2018-09-30T06:42:44.984Z,5.03
2018-09-30T06:45:14.298Z,5.13
2018-09-30T06:47:42.568Z,5.10
2018-09-30T06:50:10.850Z,5.17
2018-09-30T06:52:39.142Z,5.63
2018-09-30T06:55:07.335Z,5.20
2018-09-30T06:57:36.648Z,5.10
2018-09-30T07:00:04.842Z,5.27
2018-09-30T07:02:33.037Z,5.33
2018-09-30T07:05:01.363Z,5.60
2018-09-30T07:07:29.406Z,5.00
2018-09-30T07:09:57.592Z,5.30
2018-09-30T07:12:25.780Z,4.60
2018-09-30T07:14:54.051Z,5.33
2018-09-30T07:17:22.509Z,4.70
2018-09-30T07:19:50.730Z,5.30
2018-09-30T07:22:18.970Z,4.80
2018-09-30T07:24:47.091Z,5.13
2018-09-30T07:27:15.388Z,4.80
2018-09-30T07:29:43.589Z,5.13
2018-09-30T07:32:11.936Z,4.50
2018-09-30T07:34:40.107Z,4.90
2018-09-30T07:37:08.304Z,4.67
2018-09-30T07:39:36.600Z,5.30
2018-09-30T07:42:04.836Z,4.60
2018-09-30T07:44:35.049Z,5.20
2018-09-30T07:47:03.311Z,4.70
2018-09-30T07:49:31.521Z,4.77
2018-09-30T07:51:59.775Z,4.50
2018-09-30T07:54:27.969Z,4.57
2018-09-30T07:56:56.460Z,4.67
2018-09-30T07:59:24.676Z,4.20
2018-09-30T08:01:52.910Z,4.13
2018-09-30T08:04:21.101Z,4.53
2018-09-30T08:06:49.312Z,4.37
2018-09-30T08:09:17.517Z,4.53
2018-09-30T08:11:45.716Z,4.40
2018-09-30T08:14:13.916Z,4.83
2018-09-30T08:16:42.191Z,4.53
2018-09-30T08:19:10.332Z,4.37
2018-09-30T08:21:38.541Z,4.70
2018-09-30T08:24:06.438Z,4.40
2018-09-30T08:26:34.584Z,4.60
2018-09-30T08:29:02.813Z,4.20
2018-09-30T08:31:31.124Z,4.37
2018-09-30T08:33:59.773Z,4.27
2018-09-30T08:36:27.995Z,4.30
2018-09-30T08:38:56.220Z,4.07
2018-09-30T08:41:24.380Z,4.57
2018-09-30T08:43:52.630Z,4.43
2018-09-30T08:46:20.872Z,4.63
2018-09-30T08:48:49.072Z,4.57
2018-09-30T08:51:17.324Z,4.30
2018-09-30T08:53:45.564Z,4.63
2018-09-30T08:56:13.823Z,4.43
2018-09-30T08:58:41.944Z,3.90
2018-09-30T09:01:10.137Z,4.90
2018-09-30T09:03:38.340Z,4.20
2018-09-30T09:06:06.583Z,4.40
2018-09-30T09:08:34.817Z,4.13
2018-09-30T09:11:03.013Z,4.13
2018-09-30T09:13:31.299Z,4.23
2018-09-30T09:15:59.500Z,3.67
2018-09-30T09:18:27.764Z,3.83
2018-09-30T09:20:56.097Z,4.10
2018-09-30T09:23:24.595Z,4.00
2018-09-30T09:25:52.835Z,3.63
2018-09-30T09:28:21.039Z,3.67
2018-09-30T09:30:49.321Z,3.73
2018-09-30T09:33:17.528Z,3.27
2018-09-30T09:35:45.712Z,3.30
2018-09-30T09:38:13.930Z,3.17
2018-09-30T09:40:42.151Z,3.60
2018-09-30T09:43:10.362Z,3.10
2018-09-30T09:45:38.541Z,3.30
2018-09-30T09:48:06.729Z,3.47
2018-09-30T09:50:34.916Z,2.80
2018-09-30T09:53:03.132Z,2.90
2018-09-30T09:55:31.361Z,3.10
2018-09-30T09:57:59.664Z,3.13
2018-09-30T10:00:30.807Z,2.87
2018-09-30T10:02:59.135Z,2.97
2018-09-30T10:05:27.348Z,2.63
2018-09-30T10:07:55.515Z,2.77
2018-09-30T10:10:23.712Z,3.27
2018-09-30T10:12:51.904Z,2.67
2018-09-30T10:15:20.115Z,3.20
2018-09-30T10:17:48.305Z,2.90
2018-09-30T10:20:16.473Z,3.20
2018-09-30T10:22:44.656Z,3.30
2018-09-30T10:25:12.844Z,3.03
2018-09-30T10:27:41.111Z,2.60
2018-09-30T10:30:09.291Z,2.70
2018-09-30T10:32:37.495Z,2.20
2018-09-30T10:35:05.800Z,2.73
2018-09-30T10:37:34.000Z,2.77
2018-09-30T10:40:02.212Z,2.43
2018-09-30T10:42:31.080Z,2.43
2018-09-30T10:44:59.277Z,2.73
2018-09-30T10:47:27.465Z,2.67
2018-09-30T10:49:55.660Z,2.77
2018-09-30T10:52:23.992Z,3.13
2018-09-30T10:54:52.180Z,2.83
2018-09-30T10:57:20.382Z,2.73
2018-09-30T10:59:48.580Z,2.80
2018-09-30T11:02:16.760Z,2.93
2018-09-30T11:04:44.959Z,2.90
2018-09-30T11:07:13.156Z,3.03
2018-09-30T11:09:41.434Z,3.33
2018-09-30T11:12:09.588Z,2.80
2018-09-30T11:14:37.789Z,3.13
2018-09-30T11:17:06.372Z,2.70
2018-09-30T11:19:34.568Z,2.80
2018-09-30T11:22:02.760Z,3.23
2018-09-30T11:24:30.942Z,3.20
2018-09-30T11:26:59.139Z,3.27
2018-09-30T11:29:27.350Z,2.50
2018-09-30T11:31:55.630Z,3.00
2018-09-30T11:34:23.748Z,3.30
2018-09-30T11:36:51.944Z,3.20
2018-09-30T11:39:20.128Z,3.47
2018-09-30T11:41:48.319Z,3.97
2018-09-30T11:44:16.534Z,3.63
2018-09-30T11:46:44.695Z,3.37
2018-09-30T11:49:12.884Z,3.73
2018-09-30T11:51:41.081Z,3.80
2018-09-30T11:54:09.407Z,3.50
2018-09-30T11:56:37.593Z,3.57
2018-09-30T11:59:05.817Z,3.40
2018-09-30T12:01:34.013Z,3.90
2018-09-30T12:04:02.457Z,3.23
2018-09-30T12:06:30.644Z,3.80
2018-09-30T12:08:58.833Z,3.33
2018-09-30T12:11:27.084Z,3.43
2018-09-30T12:13:55.256Z,3.80
2018-09-30T12:16:23.448Z,3.80
2018-09-30T12:18:51.687Z,3.80
2018-09-30T12:21:19.829Z,3.73
2018-09-30T12:23:48.009Z,3.37
2018-09-30T12:26:16.200Z,3.70
2018-09-30T12:28:44.417Z,3.27
2018-09-30T12:31:12.638Z,3.63
2018-09-30T12:33:40.825Z,3.93
2018-09-30T12:36:09.080Z,3.53
2018-09-30T12:38:37.424Z,4.13
2018-09-30T12:41:05.724Z,4.17
2018-09-30T12:43:33.918Z,3.53
2018-09-30T12:46:02.111Z,3.80
2018-09-30T12:48:30.312Z,3.90
2018-09-30T12:50:58.523Z,3.93
2018-09-30T12:53:26.716Z,3.83
2018-09-30T12:55:54.937Z,3.67
2018-09-30T12:58:23.132Z,3.30
2018-09-30T13:00:51.352Z,3.27
2018-09-30T13:03:19.548Z,3.40
2018-09-30T13:05:47.897Z,3.20
2018-09-30T13:08:16.092Z,3.43
2018-09-30T13:10:44.272Z,3.80
2018-09-30T13:13:12.485Z,3.17
2018-09-30T13:15:40.661Z,3.43
2018-09-30T13:18:08.877Z,3.00
2018-09-30T13:20:37.114Z,3.17
2018-09-30T13:23:05.296Z,3.50
2018-09-30T13:25:33.519Z,3.30
2018-09-30T13:28:01.708Z,3.67
2018-09-30T13:30:29.920Z,3.00
2018-09-30T13:32:58.117Z,3.40
2018-09-30T13:35:26.326Z,3.50
2018-09-30T13:37:54.507Z,3.40
2018-09-30T13:40:22.730Z,3.27
2018-09-30T13:42:50.897Z,3.90
2018-09-30T13:45:19.128Z,3.03
2018-09-30T13:47:47.329Z,2.90
2018-09-30T13:50:15.573Z,3.60
2018-09-30T13:52:43.768Z,3.60
2018-09-30T13:55:11.983Z,4.07
2018-09-30T13:57:40.184Z,4.03
2018-09-30T14:00:08.884Z,3.80
2018-09-30T14:02:37.160Z,4.03
2018-09-30T14:05:05.573Z,3.67
2018-09-30T14:07:33.781Z,3.40
2018-09-30T14:10:01.976Z,3.37
2018-09-30T14:12:30.181Z,3.50
2018-09-30T14:14:58.852Z,3.70
2018-09-30T14:17:27.953Z,3.90
2018-09-30T14:19:56.361Z,3.73
2018-09-30T14:22:25.024Z,3.97
2018-09-30T14:24:53.209Z,4.23
2018-09-30T14:27:21.598Z,4.10
2018-09-30T14:29:49.600Z,4.17
2018-09-30T14:32:17.800Z,3.33
2018-09-30T14:34:46.005Z,3.57
2018-09-30T14:37:14.217Z,4.10
2018-09-30T14:39:42.489Z,4.20
2018-09-30T14:42:10.715Z,4.33
2018-09-30T14:44:38.957Z,4.10
2018-09-30T14:47:07.164Z,3.90
2018-09-30T14:49:35.353Z,4.07
2018-09-30T14:52:03.569Z,4.10
2018-09-30T14:54:31.806Z,3.97
2018-09-30T14:56:59.960Z,3.43
2018-09-30T14:59:28.145Z,4.07
2018-09-30T15:01:56.337Z,4.30
2018-09-30T15:04:24.541Z,5.70
2018-09-30T15:06:52.739Z,4.90
2018-09-30T15:09:20.949Z,4.10
2018-09-30T15:11:49.144Z,3.20
2018-09-30T15:14:17.327Z,3.43
2018-09-30T15:16:45.548Z,3.60
2018-09-30T15:19:13.743Z,3.27
2018-09-30T15:21:42.240Z,3.73
2018-09-30T15:24:10.462Z,2.97
2018-09-30T15:26:38.667Z,3.30
2018-09-30T15:29:06.861Z,3.70
2018-09-30T15:31:35.065Z,3.57
2018-09-30T15:34:03.268Z,3.73
2018-09-30T15:36:31.447Z,3.17
2018-09-30T15:38:59.701Z,3.13
2018-09-30T15:41:27.887Z,3.00
2018-09-30T15:43:56.099Z,2.93
2018-09-30T15:46:25.897Z,3.60
2018-09-30T15:48:54.092Z,2.80
2018-09-30T15:51:22.459Z,3.77
2018-09-30T15:53:50.640Z,3.47
2018-09-30T15:56:18.831Z,3.47
2018-09-30T15:58:47.037Z,3.07
2018-09-30T16:01:15.259Z,3.50
2018-09-30T16:03:43.456Z,3.30
2018-09-30T16:06:11.674Z,3.60
2018-09-30T16:08:39.878Z,2.83
2018-09-30T16:11:08.057Z,3.40
2018-09-30T16:13:36.235Z,3.10
2018-09-30T16:16:04.448Z,3.60
2018-09-30T16:18:32.655Z,3.10
2018-09-30T16:21:00.839Z,3.17
2018-09-30T16:23:29.026Z,3.20
2018-09-30T16:25:57.212Z,3.57
2018-09-30T16:28:25.484Z,3.50
2018-09-30T16:30:53.659Z,3.70
2018-09-30T16:33:21.851Z,3.03
2018-09-30T16:35:50.056Z,3.50
2018-09-30T16:38:18.246Z,3.17
2018-09-30T16:40:46.445Z,3.80
2018-09-30T16:43:14.632Z,3.60
2018-09-30T16:45:42.823Z,3.03
2018-09-30T16:48:11.043Z,3.60
2018-09-30T16:50:39.286Z,3.47
2018-09-30T16:53:07.426Z,3.47
2018-09-30T16:55:35.616Z,3.67
2018-09-30T16:58:03.892Z,3.20
2018-09-30T17:00:32.131Z,3.80
2018-09-30T17:03:00.335Z,3.87
2018-09-30T17:05:28.999Z,3.70
2018-09-30T17:07:57.183Z,3.20
2018-09-30T17:10:25.372Z,3.60
2018-09-30T17:12:53.557Z,3.93
2018-09-30T17:15:21.748Z,4.60
2018-09-30T17:17:49.951Z,4.73
2018-09-30T17:20:18.136Z,4.07
2018-09-30T17:22:46.367Z,4.37
2018-09-30T17:25:14.580Z,4.53
2018-09-30T17:27:42.771Z,5.07
2018-09-30T17:30:10.969Z,4.80
2018-09-30T17:32:39.166Z,4.60
2018-09-30T17:35:07.396Z,4.70
2018-09-30T17:37:35.621Z,4.27
2018-09-30T17:40:03.836Z,4.60
2018-09-30T17:42:32.090Z,4.60
2018-09-30T17:45:00.284Z,4.77
2018-09-30T17:47:28.532Z,5.00
2018-09-30T17:49:56.710Z,4.60
2018-09-30T17:52:25.076Z,5.07
2018-09-30T17:54:54.764Z,4.87
2018-09-30T17:57:23.028Z,4.90
2018-09-30T17:59:51.512Z,5.30
2018-09-30T18:02:19.832Z,5.00
2018-09-30T18:04:48.045Z,5.20
2018-09-30T18:07:16.244Z,5.47
2018-09-30T18:09:44.456Z,5.80
2018-09-30T18:12:12.640Z,5.10
2018-09-30T18:14:40.860Z,5.30
2018-09-30T18:17:09.052Z,4.87
2018-09-30T18:19:37.250Z,5.00
2018-09-30T18:22:05.437Z,5.53
2018-09-30T18:24:35.551Z,4.60
2018-09-30T18:27:04.570Z,4.90
2018-09-30T18:29:32.772Z,4.70
2018-09-30T18:32:00.972Z,5.40
2018-09-30T18:34:29.183Z,4.93
2018-09-30T18:36:57.385Z,5.77
2018-09-30T18:39:25.625Z,5.27
2018-09-30T18:41:53.828Z,5.57
2018-09-30T18:44:22.025Z,5.57
2018-09-30T18:46:50.221Z,5.73
2018-09-30T18:49:19.215Z,5.77
2018-09-30T18:51:47.533Z,5.27
2018-09-30T18:54:15.763Z,5.07
2018-09-30T18:56:44.019Z,4.80
2018-09-30T18:59:12.328Z,4.97
2018-09-30T19:01:40.535Z,5.23
2018-09-30T19:04:08.754Z,5.70
2018-09-30T19:06:36.967Z,5.60
2018-09-30T19:09:07.492Z,5.60
2018-09-30T19:11:35.718Z,5.63
2018-09-30T19:14:04.005Z,6.27
2018-09-30T19:16:32.453Z,6.30
2018-09-30T19:19:00.667Z,6.40
2018-09-30T19:21:29.056Z,6.47
2018-09-30T19:23:57.313Z,6.10
2018-09-30T19:26:25.492Z,5.70
2018-09-30T19:28:53.764Z,5.50
2018-09-30T19:31:21.985Z,6.07
2018-09-30T19:33:50.223Z,5.77
2018-09-30T19:36:18.501Z,5.50
2018-09-30T19:38:46.652Z,5.53
2018-09-30T19:41:14.860Z,6.13
2018-09-30T19:43:43.093Z,6.13
2018-09-30T19:46:11.333Z,6.27
2018-09-30T19:48:39.560Z,6.63
2018-09-30T19:51:07.735Z,5.93
2018-09-30T19:53:35.959Z,6.67
2018-09-30T19:56:04.190Z,6.20
2018-09-30T19:58:32.449Z,6.30
2018-09-30T20:01:00.702Z,6.00
2018-09-30T20:03:28.892Z,6.90
2018-09-30T20:05:57.082Z,6.60
2018-09-30T20:08:25.316Z,6.73
2018-09-30T20:10:53.498Z,7.00
2018-09-30T20:13:21.688Z,6.90
2018-09-30T20:15:49.953Z,7.07
2018-09-30T20:18:18.181Z,6.40
2018-09-30T20:20:46.421Z,6.77
2018-09-30T20:23:14.612Z,6.70
2018-09-30T20:25:42.816Z,6.90
2018-09-30T20:28:11.012Z,6.80
2018-09-30T20:30:39.320Z,6.80
2018-09-30T20:33:07.604Z,6.37
2018-09-30T20:35:35.828Z,6.37
2018-09-30T20:38:04.050Z,6.60
2018-09-30T20:40:36.244Z,6.40
2018-09-30T20:43:04.435Z,6.60
2018-09-30T20:45:32.648Z,6.40
2018-09-30T20:48:00.861Z,6.03
2018-09-30T20:50:29.056Z,6.13
2018-09-30T20:52:57.241Z,6.30
2018-09-30T20:55:25.433Z,6.10
2018-09-30T20:57:53.643Z,6.33
2018-09-30T21:00:21.859Z,6.07
2018-09-30T21:02:50.211Z,6.50
2018-09-30T21:05:25.570Z,7.17
2018-09-30T21:07:54.408Z,6.10
2018-09-30T21:10:22.623Z,6.03
2018-09-30T21:12:50.872Z,5.67
2018-09-30T21:15:19.084Z,6.07
2018-09-30T21:17:47.358Z,6.03
2018-09-30T21:20:15.544Z,6.00
2018-09-30T21:22:43.784Z,5.83
2018-09-30T21:25:12.004Z,6.10
2018-09-30T21:27:40.233Z,6.23
2018-09-30T21:30:08.518Z,5.70
2018-09-30T21:32:36.712Z,6.30
2018-09-30T21:35:04.919Z,5.60
2018-09-30T21:37:33.110Z,5.77
2018-09-30T21:40:01.436Z,5.63
2018-09-30T21:42:29.632Z,6.10
2018-09-30T21:44:57.843Z,5.37
2018-09-30T21:47:26.044Z,6.40
2018-09-30T21:49:54.236Z,5.50
2018-09-30T21:52:22.424Z,5.43
2018-09-30T21:54:50.667Z,5.87
2018-09-30T21:57:18.844Z,4.63
2018-09-30T21:59:47.063Z,5.70
2018-09-30T22:02:15.280Z,5.67
2018-09-30T22:04:43.521Z,5.80
2018-09-30T22:07:11.712Z,5.70
2018-09-30T22:09:40.008Z,5.47
2018-09-30T22:12:08.197Z,5.57
2018-09-30T22:14:36.391Z,5.43
2018-09-30T22:17:04.605Z,5.60
2018-09-30T22:19:32.791Z,5.53
2018-09-30T22:22:01.005Z,5.97
2018-09-30T22:24:29.188Z,5.90
2018-09-30T22:26:57.593Z,5.97
2018-09-30T22:29:25.808Z,5.77
2018-09-30T22:31:54.035Z,5.10
2018-09-30T22:34:22.236Z,5.47
2018-09-30T22:36:50.446Z,5.57
2018-09-30T22:39:18.660Z,5.57
2018-09-30T22:41:46.910Z,6.10
2018-09-30T22:44:15.116Z,5.87
2018-09-30T22:46:43.333Z,6.40
2018-09-30T22:49:11.572Z,6.43
2018-09-30T22:51:39.772Z,6.10
2018-09-30T22:54:07.985Z,6.00
2018-09-30T22:56:36.207Z,5.67
2018-09-30T22:59:04.417Z,5.90
2018-09-30T23:01:32.603Z,5.33
2018-09-30T23:04:00.812Z,5.10
2018-09-30T23:06:29.020Z,6.73
2018-09-30T23:08:57.302Z,5.97
2018-09-30T23:11:25.483Z,5.53
2018-09-30T23:13:53.703Z,5.63
2018-09-30T23:16:21.900Z,5.57
2018-09-30T23:18:50.202Z,5.27
2018-09-30T23:21:18.387Z,5.40
2018-09-30T23:23:46.597Z,5.83
2018-09-30T23:26:14.791Z,6.00
2018-09-30T23:28:43.012Z,5.23
2018-09-30T23:31:11.182Z,5.40
2018-09-30T23:33:39.356Z,4.90
2018-09-30T23:36:07.564Z,5.57
2018-09-30T23:38:35.772Z,5.30
2018-09-30T23:41:03.996Z,4.77
2018-09-30T23:43:32.231Z,5.57
2018-09-30T23:46:00.853Z,5.10
2018-09-30T23:48:29.061Z,5.00
2018-09-30T23:50:57.316Z,5.60
2018-09-30T23:53:25.505Z,5.30
2018-09-30T23:55:53.736Z,5.00
2018-09-30T23:58:21.912Z,5.07
